Terminal Aerodrome Forecast
Issued by NWS Salt Lake City, UT

Home | Current Version | Previous Version | Text Only | Print | Product List | Glossary On
Versions: 1 2 3 4 5 6 7 8 9 10 11 12 13 14 15 16 17 18 19 20 21 22 23 24 25 26 27 28 29 30 31 32 33 34 35 36 37 38 39 40 41 42 43 44
000
FTUS45 KSLC 200345 AAC
TAFCDC
TAF AMD
KCDC 200345Z 2004/2024 35008KT 2SM -SHSN BR BKN010 OVC020
      TEMPO 2004/2005 1SM -SN OVC008
     FM200500 01005KT P6SM -SHSN BKN020 OVC030
     FM201000 35004KT P6SM SCT050 BKN070
     FM201800 32006KT P6SM SCT080=

USA.gov is the U.S. government's official web portal to all federal, state and local government web resources and services.